sensor_id;sensor_type;location;lat;lon;timestamp;pressure;altitude;pressure_sealevel;temperature;humidity
60832;BME280;46665;51.558;-0.448;2023-06-22T00:01:49;101381.28;;;16.78;100.00
60832;BME280;46665;51.558;-0.448;2023-06-22T00:04:15;101381.88;;;16.75;100.00
60832;BME280;46665;51.558;-0.448;2023-06-22T00:06:41;101373.94;;;16.73;100.00
60832;BME280;46665;51.558;-0.448;2023-06-22T00:09:06;101364.56;;;16.74;100.00
60832;BME280;46665;51.558;-0.448;2023-06-22T00:11:34;101370.88;;;16.75;100.00
60832;BME280;46665;51.558;-0.448;2023-06-22T00:14:00;101373.13;;;16.73;100.00
60832;BME280;46665;51.558;-0.448;2023-06-22T00:16:25;101373.22;;;16.67;100.00
60832;BME280;46665;51.558;-0.448;2023-06-22T00:18:51;101371.88;;;16.65;100.00
60832;BME280;46665;51.558;-0.448;2023-06-22T00:21:16;101373.59;;;16.61;100.00
60832;BME280;46665;51.558;-0.448;2023-06-22T00:23:42;101368.44;;;16.59;100.00
60832;BME280;46665;51.558;-0.448;2023-06-22T00:26:08;101371.78;;;16.56;100.00
60832;BME280;46665;51.558;-0.448;2023-06-22T00:28:33;101368.63;;;16.49;100.00
60832;BME280;46665;51.558;-0.448;2023-06-22T00:30:59;101379.91;;;16.47;100.00
60832;BME280;46665;51.558;-0.448;2023-06-22T00:33:25;101378.06;;;16.43;100.00
60832;BME280;46665;51.558;-0.448;2023-06-22T00:35:51;101375.94;;;16.40;100.00
60832;BME280;46665;51.558;-0.448;2023-06-22T00:38:17;101366.69;;;16.36;100.00
60832;BME280;46665;51.558;-0.448;2023-06-22T00:40:43;101354.38;;;16.33;100.00
60832;BME280;46665;51.558;-0.448;2023-06-22T00:43:08;101357.50;;;16.27;100.00
60832;BME280;46665;51.558;-0.448;2023-06-22T00:45:34;101365.22;;;16.24;100.00
60832;BME280;46665;51.558;-0.448;2023-06-22T00:48:00;101359.09;;;16.14;100.00
60832;BME280;46665;51.558;-0.448;2023-06-22T00:50:30;101364.25;;;16.01;100.00
60832;BME280;46665;51.558;-0.448;2023-06-22T00:53:03;101362.78;;;15.90;100.00
60832;BME280;46665;51.558;-0.448;2023-06-22T00:55:51;101365.63;;;15.85;100.00
60832;BME280;46665;51.558;-0.448;2023-06-22T00:58:17;101363.97;;;15.84;100.00
60832;BME280;46665;51.558;-0.448;2023-06-22T01:00:47;101362.56;;;15.87;100.00
60832;BME280;46665;51.558;-0.448;2023-06-22T01:03:12;101361.97;;;15.90;100.00
60832;BME280;46665;51.558;-0.448;2023-06-22T01:05:39;101359.81;;;15.87;100.00
60832;BME280;46665;51.558;-0.448;2023-06-22T01:08:44;101356.25;;;15.86;100.00
60832;BME280;46665;51.558;-0.448;2023-06-22T01:11:45;101366.19;;;15.82;100.00
60832;BME280;46665;51.558;-0.448;2023-06-22T01:14:46;101365.25;;;15.73;100.00
60832;BME280;46665;51.558;-0.448;2023-06-22T01:17:15;101369.47;;;15.65;100.00
60832;BME280;46665;51.558;-0.448;2023-06-22T01:19:54;101361.31;;;15.60;100.00
60832;BME280;46665;51.558;-0.448;2023-06-22T01:22:23;101362.72;;;15.57;100.00
60832;BME280;46665;51.558;-0.448;2023-06-22T01:25:07;101365.47;;;15.57;100.00
60832;BME280;46665;51.558;-0.448;2023-06-22T01:30:07;101365.03;;;15.50;100.00
60832;BME280;46665;51.558;-0.448;2023-06-22T01:32:37;101360.41;;;15.46;100.00
60832;BME280;46665;51.558;-0.448;2023-06-22T01:35:05;101352.19;;;15.46;100.00
60832;BME280;46665;51.558;-0.448;2023-06-22T01:37:33;101354.41;;;15.44;100.00
60832;BME280;46665;51.558;-0.448;2023-06-22T01:40:01;101364.03;;;15.41;100.00
60832;BME280;46665;51.558;-0.448;2023-06-22T01:42:28;101359.97;;;15.38;100.00
60832;BME280;46665;51.558;-0.448;2023-06-22T01:44:54;101354.56;;;15.33;100.00
60832;BME280;46665;51.558;-0.448;2023-06-22T01:47:24;101357.81;;;15.35;100.00
60832;BME280;46665;51.558;-0.448;2023-06-22T01:49:49;101353.47;;;15.34;100.00
60832;BME280;46665;51.558;-0.448;2023-06-22T01:52:17;101351.81;;;15.33;100.00
60832;BME280;46665;51.558;-0.448;2023-06-22T01:54:42;101361.44;;;15.31;100.00
60832;BME280;46665;51.558;-0.448;2023-06-22T01:57:08;101353.28;;;15.26;100.00
60832;BME280;46665;51.558;-0.448;2023-06-22T02:02:07;101355.34;;;15.15;100.00
60832;BME280;46665;51.558;-0.448;2023-06-22T02:04:48;101360.84;;;15.15;100.00
60832;BME280;46665;51.558;-0.448;2023-06-22T02:07:18;101351.34;;;15.07;100.00
60832;BME280;46665;51.558;-0.448;2023-06-22T02:09:47;101348.69;;;15.02;100.00
60832;BME280;46665;51.558;-0.448;2023-06-22T02:12:17;101354.75;;;14.99;100.00
60832;BME280;46665;51.558;-0.448;2023-06-22T02:14:44;101353.63;;;15.00;100.00
60832;BME280;46665;51.558;-0.448;2023-06-22T02:17:11;101356.44;;;14.95;100.00
60832;BME280;46665;51.558;-0.448;2023-06-22T02:19:38;101358.13;;;14.91;100.00
60832;BME280;46665;51.558;-0.448;2023-06-22T02:22:06;101361.50;;;14.83;100.00
60832;BME280;46665;51.558;-0.448;2023-06-22T02:24:31;101345.72;;;14.74;100.00
60832;BME280;46665;51.558;-0.448;2023-06-22T02:26:59;101359.63;;;14.78;100.00
60832;BME280;46665;51.558;-0.448;2023-06-22T02:29:25;101360.47;;;14.79;100.00
60832;BME280;46665;51.558;-0.448;2023-06-22T02:31:52;101356.34;;;14.81;100.00
60832;BME280;46665;51.558;-0.448;2023-06-22T02:34:17;101352.75;;;14.81;100.00
60832;BME280;46665;51.558;-0.448;2023-06-22T02:36:47;101359.38;;;14.80;100.00
60832;BME280;46665;51.558;-0.448;2023-06-22T02:39:23;101354.75;;;14.75;100.00
60832;BME280;46665;51.558;-0.448;2023-06-22T02:41:53;101352.59;;;14.72;100.00
60832;BME280;46665;51.558;-0.448;2023-06-22T02:44:19;101349.88;;;14.72;100.00
60832;BME280;46665;51.558;-0.448;2023-06-22T02:46:46;101351.19;;;14.74;100.00
60832;BME280;46665;51.558;-0.448;2023-06-22T02:49:12;101351.47;;;14.73;100.00
60832;BME280;46665;51.558;-0.448;2023-06-22T02:51:44;101346.06;;;14.68;100.00
60832;BME280;46665;51.558;-0.448;2023-06-22T02:54:10;101347.25;;;14.62;100.00
60832;BME280;46665;51.558;-0.448;2023-06-22T02:56:35;101348.38;;;14.56;100.00
60832;BME280;46665;51.558;-0.448;2023-06-22T02:59:02;101362.69;;;14.47;100.00
60832;BME280;46665;51.558;-0.448;2023-06-22T03:01:28;101351.25;;;14.40;100.00
60832;BME280;46665;51.558;-0.448;2023-06-22T03:03:58;101347.19;;;14.38;100.00
60832;BME280;46665;51.558;-0.448;2023-06-22T03:06:23;101343.63;;;14.37;100.00
60832;BME280;46665;51.558;-0.448;2023-06-22T03:09:02;101343.94;;;14.36;100.00
60832;BME280;46665;51.558;-0.448;2023-06-22T03:11:29;101351.25;;;14.40;100.00
60832;BME280;46665;51.558;-0.448;2023-06-22T03:13:54;101346.91;;;14.39;100.00
60832;BME280;46665;51.558;-0.448;2023-06-22T03:16:20;101342.22;;;14.40;100.00
60832;BME280;46665;51.558;-0.448;2023-06-22T03:18:45;101346.38;;;14.37;100.00
60832;BME280;46665;51.558;-0.448;2023-06-22T03:21:11;101343.63;;;14.37;100.00
60832;BME280;46665;51.558;-0.448;2023-06-22T03:23:36;101343.34;;;14.39;100.00
60832;BME280;46665;51.558;-0.448;2023-06-22T03:26:02;101340.84;;;14.42;100.00
60832;BME280;46665;51.558;-0.448;2023-06-22T03:28:27;101347.72;;;14.40;100.00
60832;BME280;46665;51.558;-0.448;2023-06-22T03:30:53;101337.06;;;14.38;100.00
60832;BME280;46665;51.558;-0.448;2023-06-22T03:33:18;101330.19;;;14.41;100.00
60832;BME280;46665;51.558;-0.448;2023-06-22T03:35:43;101329.66;;;14.39;100.00
60832;BME280;46665;51.558;-0.448;2023-06-22T03:38:09;101325.31;;;14.32;100.00
60832;BME280;46665;51.558;-0.448;2023-06-22T03:40:34;101332.25;;;14.25;100.00
60832;BME280;46665;51.558;-0.448;2023-06-22T03:42:59;101332.34;;;14.15;100.00
60832;BME280;46665;51.558;-0.448;2023-06-22T03:45:25;101331.34;;;14.05;100.00
60832;BME280;46665;51.558;-0.448;2023-06-22T03:47:50;101331.34;;;14.05;100.00
60832;BME280;46665;51.558;-0.448;2023-06-22T03:50:16;101333.56;;;14.03;100.00
60832;BME280;46665;51.558;-0.448;2023-06-22T03:52:41;101337.38;;;14.02;100.00
60832;BME280;46665;51.558;-0.448;2023-06-22T03:55:07;101332.22;;;14.01;100.00
60832;BME280;46665;51.558;-0.448;2023-06-22T03:57:33;101333.59;;;13.98;100.00
60832;BME280;46665;51.558;-0.448;2023-06-22T03:59:59;101334.19;;;13.95;100.00
60832;BME280;46665;51.558;-0.448;2023-06-22T04:02:25;101325.44;;;13.93;100.00
60832;BME280;46665;51.558;-0.448;2023-06-22T04:04:50;101320.25;;;13.92;100.00
60832;BME280;46665;51.558;-0.448;2023-06-22T04:07:16;101332.81;;;13.98;100.00
60832;BME280;46665;51.558;-0.448;2023-06-22T04:09:43;101331.69;;;13.99;100.00
60832;BME280;46665;51.558;-0.448;2023-06-22T04:12:09;101321.31;;;13.96;100.00
60832;BME280;46665;51.558;-0.448;2023-06-22T04:14:34;101328.75;;;13.90;100.00
60832;BME280;46665;51.558;-0.448;2023-06-22T04:17:01;101331.78;;;13.88;100.00
60832;BME280;46665;51.558;-0.448;2023-06-22T04:19:26;101329.88;;;13.84;100.00
60832;BME280;46665;51.558;-0.448;2023-06-22T04:21:52;101328.31;;;13.78;100.00
60832;BME280;46665;51.558;-0.448;2023-06-22T04:24:17;101337.56;;;13.82;100.00
60832;BME280;46665;51.558;-0.448;2023-06-22T04:26:43;101330.44;;;13.86;100.00
60832;BME280;46665;51.558;-0.448;2023-06-22T04:29:10;101339.13;;;13.93;100.00
60832;BME280;46665;51.558;-0.448;2023-06-22T04:31:36;101335.22;;;13.99;100.00
60832;BME280;46665;51.558;-0.448;2023-06-22T04:34:03;101339.56;;;14.05;100.00
60832;BME280;46665;51.558;-0.448;2023-06-22T04:36:35;101328.38;;;14.02;100.00
60832;BME280;46665;51.558;-0.448;2023-06-22T04:39:10;101326.13;;;14.09;100.00
60832;BME280;46665;51.558;-0.448;2023-06-22T04:41:37;101333.22;;;14.10;100.00
60832;BME280;46665;51.558;-0.448;2023-06-22T04:44:13;101335.41;;;14.13;100.00
60832;BME280;46665;51.558;-0.448;2023-06-22T04:46:39;101337.28;;;14.13;100.00
60832;BME280;46665;51.558;-0.448;2023-06-22T04:49:08;101333.69;;;14.17;100.00
60832;BME280;46665;51.558;-0.448;2023-06-22T04:51:41;101329.56;;;14.20;100.00
60832;BME280;46665;51.558;-0.448;2023-06-22T04:54:08;101336.09;;;14.24;100.00
60832;BME280;46665;51.558;-0.448;2023-06-22T04:56:34;101340.13;;;14.31;100.00
60832;BME280;46665;51.558;-0.448;2023-06-22T04:59:00;101339.81;;;14.38;100.00
60832;BME280;46665;51.558;-0.448;2023-06-22T05:01:26;101334.78;;;14.45;100.00
60832;BME280;46665;51.558;-0.448;2023-06-22T05:03:52;101336.94;;;14.54;100.00
60832;BME280;46665;51.558;-0.448;2023-06-22T05:06:26;101332.75;;;14.61;100.00
60832;BME280;46665;51.558;-0.448;2023-06-22T05:08:55;101343.63;;;14.66;100.00
60832;BME280;46665;51.558;-0.448;2023-06-22T05:11:27;101344.66;;;14.70;100.00
60832;BME280;46665;51.558;-0.448;2023-06-22T05:13:53;101344.31;;;14.77;100.00
60832;BME280;46665;51.558;-0.448;2023-06-22T05:16:19;101340.41;;;14.83;100.00
60832;BME280;46665;51.558;-0.448;2023-06-22T05:18:50;101342.28;;;14.88;100.00
60832;BME280;46665;51.558;-0.448;2023-06-22T05:21:16;101337.38;;;14.85;100.00
60832;BME280;46665;51.558;-0.448;2023-06-22T05:23:41;101350.28;;;14.84;100.00
60832;BME280;46665;51.558;-0.448;2023-06-22T05:26:07;101350.28;;;14.84;100.00
60832;BME280;46665;51.558;-0.448;2023-06-22T05:28:34;101350.81;;;14.86;100.00
60832;BME280;46665;51.558;-0.448;2023-06-22T05:31:00;101356.50;;;14.90;100.00
60832;BME280;46665;51.558;-0.448;2023-06-22T05:33:25;101362.72;;;14.95;100.00
60832;BME280;46665;51.558;-0.448;2023-06-22T05:35:50;101357.78;;;14.98;100.00
60832;BME280;46665;51.558;-0.448;2023-06-22T05:38:16;101374.91;;;15.08;100.00
60832;BME280;46665;51.558;-0.448;2023-06-22T05:40:41;101367.19;;;15.10;100.00
60832;BME280;46665;51.558;-0.448;2023-06-22T05:43:06;101365.19;;;15.16;100.00
60832;BME280;46665;51.558;-0.448;2023-06-22T05:45:32;101379.44;;;15.18;100.00
60832;BME280;46665;51.558;-0.448;2023-06-22T05:47:57;101369.28;;;15.18;100.00
60832;BME280;46665;51.558;-0.448;2023-06-22T05:50:22;101360.78;;;15.20;100.00
60832;BME280;46665;51.558;-0.448;2023-06-22T05:52:48;101368.13;;;15.25;100.00
60832;BME280;46665;51.558;-0.448;2023-06-22T05:55:13;101360.41;;;15.27;100.00
60832;BME280;46665;51.558;-0.448;2023-06-22T05:57:40;101353.53;;;15.29;100.00
60832;BME280;46665;51.558;-0.448;2023-06-22T06:00:06;101361.63;;;15.39;100.00
60832;BME280;46665;51.558;-0.448;2023-06-22T06:02:35;101357.06;;;15.49;100.00
60832;BME280;46665;51.558;-0.448;2023-06-22T06:05:01;101358.25;;;15.61;100.00
60832;BME280;46665;51.558;-0.448;2023-06-22T06:07:28;101368.00;;;15.73;100.00
60832;BME280;46665;51.558;-0.448;2023-06-22T06:09:54;101362.13;;;15.79;100.00
60832;BME280;46665;51.558;-0.448;2023-06-22T06:12:19;101360.41;;;15.84;100.00
60832;BME280;46665;51.558;-0.448;2023-06-22T06:14:44;101364.22;;;15.88;100.00
60832;BME280;46665;51.558;-0.448;2023-06-22T06:17:10;101371.09;;;15.85;100.00
60832;BME280;46665;51.558;-0.448;2023-06-22T06:19:35;101370.50;;;15.88;100.00
60832;BME280;46665;51.558;-0.448;2023-06-22T06:22:01;101361.38;;;15.93;100.00
60832;BME280;46665;51.558;-0.448;2023-06-22T06:24:26;101366.25;;;15.96;100.00
60832;BME280;46665;51.558;-0.448;2023-06-22T06:26:51;101355.13;;;16.06;100.00
60832;BME280;46665;51.558;-0.448;2023-06-22T06:29:17;101364.34;;;16.10;100.00
60832;BME280;46665;51.558;-0.448;2023-06-22T06:31:42;101356.34;;;16.14;100.00
60832;BME280;46665;51.558;-0.448;2023-06-22T06:34:08;101358.31;;;16.27;100.00
60832;BME280;46665;51.558;-0.448;2023-06-22T06:36:33;101362.09;;;16.31;100.00
60832;BME280;46665;51.558;-0.448;2023-06-22T06:38:58;101356.78;;;16.35;100.00
60832;BME280;46665;51.558;-0.448;2023-06-22T06:41:24;101361.91;;;16.41;100.00
60832;BME280;46665;51.558;-0.448;2023-06-22T06:43:49;101358.53;;;16.44;100.00
60832;BME280;46665;51.558;-0.448;2023-06-22T06:46:15;101356.84;;;16.49;100.00
60832;BME280;46665;51.558;-0.448;2023-06-22T06:48:40;101354.09;;;16.62;100.00
60832;BME280;46665;51.558;-0.448;2023-06-22T06:51:05;101355.31;;;16.70;100.00
60832;BME280;46665;51.558;-0.448;2023-06-22T06:53:35;101349.81;;;16.70;100.00
60832;BME280;46665;51.558;-0.448;2023-06-22T06:56:00;101354.09;;;16.76;100.00
60832;BME280;46665;51.558;-0.448;2023-06-22T06:58:26;101349.97;;;16.79;100.00
60832;BME280;46665;51.558;-0.448;2023-06-22T07:00:51;101342.59;;;16.88;100.00
60832;BME280;46665;51.558;-0.448;2023-06-22T07:03:16;101337.81;;;16.94;100.00
60832;BME280;46665;51.558;-0.448;2023-06-22T07:05:42;101344.94;;;16.95;100.00
60832;BME280;46665;51.558;-0.448;2023-06-22T07:08:07;101342.38;;;16.98;100.00
60832;BME280;46665;51.558;-0.448;2023-06-22T07:10:33;101343.94;;;17.04;100.00
60832;BME280;46665;51.558;-0.448;2023-06-22T07:12:58;101342.16;;;17.08;100.00
60832;BME280;46665;51.558;-0.448;2023-06-22T07:15:23;101347.44;;;17.19;100.00
60832;BME280;46665;51.558;-0.448;2023-06-22T07:17:49;101336.84;;;17.26;100.00
60832;BME280;46665;51.558;-0.448;2023-06-22T07:20:14;101339.88;;;17.38;100.00
60832;BME280;46665;51.558;-0.448;2023-06-22T07:22:43;101332.41;;;17.52;100.00
60832;BME280;46665;51.558;-0.448;2023-06-22T07:25:09;101330.13;;;17.54;100.00
60832;BME280;46665;51.558;-0.448;2023-06-22T07:27:39;101339.78;;;17.66;100.00
60832;BME280;46665;51.558;-0.448;2023-06-22T07:30:08;101334.66;;;17.73;100.00
60832;BME280;46665;51.558;-0.448;2023-06-22T07:32:34;101339.63;;;17.85;100.00
60832;BME280;46665;51.558;-0.448;2023-06-22T07:34:59;101341.63;;;17.93;100.00
60832;BME280;46665;51.558;-0.448;2023-06-22T07:37:25;101340.75;;;18.06;100.00
60832;BME280;46665;51.558;-0.448;2023-06-22T07:39:52;101343.06;;;18.13;100.00
60832;BME280;46665;51.558;-0.448;2023-06-22T07:42:19;101346.78;;;18.17;100.00
60832;BME280;46665;51.558;-0.448;2023-06-22T07:44:44;101335.13;;;18.20;100.00
60832;BME280;46665;51.558;-0.448;2023-06-22T07:47:10;101343.63;;;18.32;100.00
60832;BME280;46665;51.558;-0.448;2023-06-22T07:49:35;101343.84;;;18.45;100.00
60832;BME280;46665;51.558;-0.448;2023-06-22T07:52:00;101335.59;;;18.53;100.00
60832;BME280;46665;51.558;-0.448;2023-06-22T07:54:27;101348.50;;;18.67;100.00
60832;BME280;46665;51.558;-0.448;2023-06-22T07:56:54;101334.44;;;18.77;100.00
60832;BME280;46665;51.558;-0.448;2023-06-22T07:59:20;101336.41;;;18.85;100.00
60832;BME280;46665;51.558;-0.448;2023-06-22T08:01:45;101329.94;;;18.90;100.00
60832;BME280;46665;51.558;-0.448;2023-06-22T08:04:10;101339.66;;;18.96;100.00
60832;BME280;46665;51.558;-0.448;2023-06-22T08:06:36;101328.50;;;19.01;100.00
60832;BME280;46665;51.558;-0.448;2023-06-22T08:09:01;101329.97;;;19.07;100.00
60832;BME280;46665;51.558;-0.448;2023-06-22T08:11:27;101325.28;;;19.16;100.00
60832;BME280;46665;51.558;-0.448;2023-06-22T08:13:53;101337.47;;;19.33;100.00
60832;BME280;46665;51.558;-0.448;2023-06-22T08:16:20;101324.97;;;19.44;100.00
60832;BME280;46665;51.558;-0.448;2023-06-22T08:18:46;101327.56;;;19.49;100.00
60832;BME280;46665;51.558;-0.448;2023-06-22T08:21:12;101331.47;;;19.57;100.00
60832;BME280;46665;51.558;-0.448;2023-06-22T08:23:37;101325.78;;;19.62;100.00
60832;BME280;46665;51.558;-0.448;2023-06-22T08:26:02;101337.34;;;19.73;100.00
60832;BME280;46665;51.558;-0.448;2023-06-22T08:28:28;101331.81;;;19.81;100.00
60832;BME280;46665;51.558;-0.448;2023-06-22T08:30:53;101328.22;;;19.89;100.00
60832;BME280;46665;51.558;-0.448;2023-06-22T08:33:20;101322.69;;;19.98;100.00
60832;BME280;46665;51.558;-0.448;2023-06-22T08:35:48;101323.44;;;20.07;99.33
60832;BME280;46665;51.558;-0.448;2023-06-22T08:38:14;101322.16;;;20.13;98.53
60832;BME280;46665;51.558;-0.448;2023-06-22T08:40:40;101323.28;;;20.21;98.11
60832;BME280;46665;51.558;-0.448;2023-06-22T08:43:06;101328.75;;;20.30;93.63
60832;BME280;46665;51.558;-0.448;2023-06-22T08:45:31;101325.50;;;20.37;94.97
60832;BME280;46665;51.558;-0.448;2023-06-22T08:47:57;101321.38;;;20.43;95.30
60832;BME280;46665;51.558;-0.448;2023-06-22T08:50:22;101329.66;;;20.51;93.04
60832;BME280;46665;51.558;-0.448;2023-06-22T08:52:48;101326.06;;;20.60;91.87
60832;BME280;46665;51.558;-0.448;2023-06-22T08:55:13;101335.28;;;20.72;88.83
60832;BME280;46665;51.558;-0.448;2023-06-22T08:57:39;101335.28;;;20.72;85.90
60832;BME280;46665;51.558;-0.448;2023-06-22T09:00:08;101329.06;;;20.75;87.04
60832;BME280;46665;51.558;-0.448;2023-06-22T09:02:42;101330.34;;;20.87;89.07
60832;BME280;46665;51.558;-0.448;2023-06-22T09:05:07;101330.75;;;20.97;88.06
60832;BME280;46665;51.558;-0.448;2023-06-22T09:07:33;101332.44;;;21.11;86.87
60832;BME280;46665;51.558;-0.448;2023-06-22T09:09:59;101332.84;;;21.21;86.34
60832;BME280;46665;51.558;-0.448;2023-06-22T09:12:25;101341.91;;;21.31;84.10
60832;BME280;46665;51.558;-0.448;2023-06-22T09:14:52;101333.88;;;21.38;83.63
60832;BME280;46665;51.558;-0.448;2023-06-22T09:17:18;101337.59;;;21.42;83.59
60832;BME280;46665;51.558;-0.448;2023-06-22T09:19:43;101336.38;;;21.52;83.69
60832;BME280;46665;51.558;-0.448;2023-06-22T09:22:08;101338.41;;;21.63;82.62
60832;BME280;46665;51.558;-0.448;2023-06-22T09:24:34;101344.34;;;21.74;80.56
60832;BME280;46665;51.558;-0.448;2023-06-22T09:27:00;101337.66;;;21.75;79.35
60832;BME280;46665;51.558;-0.448;2023-06-22T09:29:25;101337.66;;;21.75;77.60
60832;BME280;46665;51.558;-0.448;2023-06-22T09:31:50;101345.19;;;21.87;79.59
60832;BME280;46665;51.558;-0.448;2023-06-22T09:34:18;101340.06;;;21.98;78.77
60832;BME280;46665;51.558;-0.448;2023-06-22T09:36:46;101338.09;;;21.98;76.81
60832;BME280;46665;51.558;-0.448;2023-06-22T09:39:11;101332.06;;;21.96;77.79
60832;BME280;46665;51.558;-0.448;2023-06-22T09:41:37;101334.31;;;22.03;79.09
60832;BME280;46665;51.558;-0.448;2023-06-22T09:44:03;101332.44;;;22.07;78.37
60832;BME280;46665;51.558;-0.448;2023-06-22T09:46:28;101341.94;;;22.06;77.69
60832;BME280;46665;51.558;-0.448;2023-06-22T09:48:54;101335.81;;;22.00;76.46
60832;BME280;46665;51.558;-0.448;2023-06-22T09:51:19;101343.50;;;21.95;75.95
60832;BME280;46665;51.558;-0.448;2023-06-22T09:53:47;101350.94;;;21.82;75.10
60832;BME280;46665;51.558;-0.448;2023-06-22T09:56:12;101344.34;;;21.74;75.53
60832;BME280;46665;51.558;-0.448;2023-06-22T09:58:41;101338.22;;;21.69;73.80
60832;BME280;46665;51.558;-0.448;2023-06-22T10:01:07;101347.59;;;21.76;73.88
60832;BME280;46665;51.558;-0.448;2023-06-22T10:03:32;101354.47;;;21.91;75.10
60832;BME280;46665;51.558;-0.448;2023-06-22T10:05:57;101346.25;;;21.95;78.29
60832;BME280;46665;51.558;-0.448;2023-06-22T10:08:23;101350.19;;;21.94;78.54
60832;BME280;46665;51.558;-0.448;2023-06-22T10:10:48;101340.13;;;21.89;76.47
60832;BME280;46665;51.558;-0.448;2023-06-22T10:13:14;101344.66;;;21.94;76.84
60832;BME280;46665;51.558;-0.448;2023-06-22T10:15:40;101344.50;;;21.90;75.52
60832;BME280;46665;51.558;-0.448;2023-06-22T10:18:05;101344.41;;;21.86;74.09
60832;BME280;46665;51.558;-0.448;2023-06-22T10:20:31;101340.47;;;21.88;75.10
60832;BME280;46665;51.558;-0.448;2023-06-22T10:22:56;101336.00;;;21.95;75.75
60832;BME280;46665;51.558;-0.448;2023-06-22T10:25:22;101333.94;;;22.04;75.30
60832;BME280;46665;51.558;-0.448;2023-06-22T10:27:47;101331.19;;;22.17;73.28
60832;BME280;46665;51.558;-0.448;2023-06-22T10:30:13;101334.59;;;22.22;72.57
60832;BME280;46665;51.558;-0.448;2023-06-22T10:32:39;101324.44;;;22.26;71.71
60832;BME280;46665;51.558;-0.448;2023-06-22T10:35:06;101327.78;;;22.20;68.74
60832;BME280;46665;51.558;-0.448;2023-06-22T10:37:31;101327.28;;;22.18;71.79
60832;BME280;46665;51.558;-0.448;2023-06-22T10:39:57;101318.50;;;22.16;72.34
60832;BME280;46665;51.558;-0.448;2023-06-22T10:42:22;101327.84;;;22.11;70.47
60832;BME280;46665;51.558;-0.448;2023-06-22T10:44:48;101325.78;;;22.08;68.76
60832;BME280;46665;51.558;-0.448;2023-06-22T10:47:14;101332.44;;;22.07;68.47
60832;BME280;46665;51.558;-0.448;2023-06-22T10:49:40;101324.72;;;22.13;68.81
60832;BME280;46665;51.558;-0.448;2023-06-22T10:52:09;101328.03;;;22.27;66.75
60832;BME280;46665;51.558;-0.448;2023-06-22T10:54:35;101329.78;;;22.44;67.53
60832;BME280;46665;51.558;-0.448;2023-06-22T10:57:02;101328.06;;;22.64;68.35
60832;BME280;46665;51.558;-0.448;2023-06-22T10:59:28;101327.22;;;22.88;62.61
60832;BME280;46665;51.558;-0.448;2023-06-22T11:01:57;101336.50;;;23.04;64.24
60832;BME280;46665;51.558;-0.448;2023-06-22T11:04:23;101327.56;;;23.23;62.35
60832;BME280;46665;51.558;-0.448;2023-06-22T11:06:49;101333.63;;;23.41;61.38
60832;BME280;46665;51.558;-0.448;2023-06-22T11:09:15;101328.25;;;23.61;61.76
60832;BME280;46665;51.558;-0.448;2023-06-22T11:11:49;101334.41;;;23.82;59.17
60832;BME280;46665;51.558;-0.448;2023-06-22T11:14:15;101340.69;;;23.79;58.43
60832;BME280;46665;51.558;-0.448;2023-06-22T11:16:40;101342.13;;;23.61;58.33
60832;BME280;46665;51.558;-0.448;2023-06-22T11:19:06;101337.09;;;23.50;58.75
60832;BME280;46665;51.558;-0.448;2023-06-22T11:21:32;101330.22;;;23.60;60.09
60832;BME280;46665;51.558;-0.448;2023-06-22T11:23:58;101335.78;;;23.60;57.94
60832;BME280;46665;51.558;-0.448;2023-06-22T11:26:24;101336.94;;;23.59;57.77
60832;BME280;46665;51.558;-0.448;2023-06-22T11:28:49;101338.72;;;23.67;57.68
60832;BME280;46665;51.558;-0.448;2023-06-22T11:31:15;101328.31;;;23.76;59.15
60832;BME280;46665;51.558;-0.448;2023-06-22T11:33:40;101334.69;;;23.77;55.28
60832;BME280;46665;51.558;-0.448;2023-06-22T11:36:05;101330.28;;;23.76;56.15
60832;BME280;46665;51.558;-0.448;2023-06-22T11:38:31;101330.53;;;23.71;55.47
60832;BME280;46665;51.558;-0.448;2023-06-22T11:41:00;101322.44;;;23.66;57.98
60832;BME280;46665;51.558;-0.448;2023-06-22T11:43:25;101328.97;;;23.57;57.27
60832;BME280;46665;51.558;-0.448;2023-06-22T11:45:50;101333.25;;;23.55;58.01
60832;BME280;46665;51.558;-0.448;2023-06-22T11:48:16;101327.75;;;23.71;58.13
60832;BME280;46665;51.558;-0.448;2023-06-22T11:50:41;101320.28;;;23.87;57.72
60832;BME280;46665;51.558;-0.448;2023-06-22T11:53:07;101313.66;;;24.08;58.34
60832;BME280;46665;51.558;-0.448;2023-06-22T11:55:32;101314.97;;;24.26;57.44
60832;BME280;46665;51.558;-0.448;2023-06-22T11:57:58;101308.84;;;24.36;55.28
60832;BME280;46665;51.558;-0.448;2023-06-22T12:00:25;101322.50;;;24.41;54.99
60832;BME280;46665;51.558;-0.448;2023-06-22T12:02:51;101324.03;;;24.55;53.29
60832;BME280;46665;51.558;-0.448;2023-06-22T12:05:20;101315.94;;;24.65;54.26
60832;BME280;46665;51.558;-0.448;2023-06-22T12:07:46;101321.22;;;24.86;52.73
60832;BME280;46665;51.558;-0.448;2023-06-22T12:10:11;101320.88;;;25.07;51.63
60832;BME280;46665;51.558;-0.448;2023-06-22T12:12:37;101319.13;;;24.99;50.07
60832;BME280;46665;51.558;-0.448;2023-06-22T12:15:03;101322.88;;;25.07;54.01
60832;BME280;46665;51.558;-0.448;2023-06-22T12:17:29;101320.78;;;25.04;54.74
60832;BME280;46665;51.558;-0.448;2023-06-22T12:19:55;101311.06;;;24.78;54.37
60832;BME280;46665;51.558;-0.448;2023-06-22T12:22:22;101317.28;;;24.56;54.87
60832;BME280;46665;51.558;-0.448;2023-06-22T12:24:47;101315.38;;;24.28;53.91
60832;BME280;46665;51.558;-0.448;2023-06-22T12:27:13;101315.22;;;24.21;55.31
60832;BME280;46665;51.558;-0.448;2023-06-22T12:29:41;101305.88;;;24.13;56.01
60832;BME280;46665;51.558;-0.448;2023-06-22T12:32:07;101306.78;;;24.17;53.66
60832;BME280;46665;51.558;-0.448;2023-06-22T12:34:33;101306.34;;;24.31;54.24
60832;BME280;46665;51.558;-0.448;2023-06-22T12:36:58;101305.00;;;24.57;54.00